createdAt,value
2023-02-14T00:00:31.996Z,78.68
2023-02-14T00:05:35.187Z,79.99
2023-02-14T00:10:38.647Z,80.47
2023-02-14T00:15:41.771Z,79.79
2023-02-14T00:20:45.162Z,79.36
2023-02-14T00:25:48.316Z,80.93
2023-02-14T00:30:51.347Z,81.26
2023-02-14T00:35:54.774Z,81.58
2023-02-14T00:40:58.636Z,81.62
2023-02-14T00:46:02.714Z,82.69
2023-02-14T00:51:07.036Z,81.43
2023-02-14T00:56:10.255Z,81.03
2023-02-14T01:01:15.059Z,80.36
2023-02-14T01:06:19.323Z,80.47
2023-02-14T01:11:24.269Z,79.98
2023-02-14T01:16:30.338Z,80.32
2023-02-14T01:21:34.321Z,81.34
2023-02-14T01:26:37.911Z,81.67
2023-02-14T01:31:41.155Z,81.57
2023-02-14T01:36:44.253Z,82.58
2023-02-14T01:41:49.085Z,82.48
2023-02-14T01:46:52.690Z,82.81
2023-02-14T01:52:06.388Z,82.34
2023-02-14T01:57:13.999Z,81.75
2023-02-14T02:02:24.122Z,81.62
2023-02-14T02:07:28.241Z,81.46
2023-02-14T02:12:36.010Z,81.89
2023-02-14T02:17:42.474Z,82.80
2023-02-14T02:23:13.451Z,82.79
2023-02-14T02:29:14.301Z,82.37
2023-02-14T02:34:32.210Z,82.75
2023-02-14T02:40:00.309Z,83.69
2023-02-14T02:45:19.625Z,83.20
2023-02-14T02:51:05.190Z,83.30
2023-02-14T02:56:33.448Z,82.23
2023-02-14T03:01:41.686Z,82.32
2023-02-14T03:06:46.433Z,81.86
2023-02-14T03:12:07.808Z,81.92
2023-02-14T03:17:31.676Z,82.25
2023-02-14T03:22:44.796Z,82.31
2023-02-14T03:27:59.143Z,82.85
2023-02-14T03:33:10.140Z,81.41
2023-02-14T03:38:36.958Z,80.83
2023-02-14T03:43:47.333Z,81.30
2023-02-14T03:48:53.468Z,82.17
2023-02-14T03:53:59.459Z,82.49
2023-02-14T03:59:11.996Z,82.15
2023-02-14T04:04:18.384Z,82.50
2023-02-14T04:09:21.857Z,84.27
2023-02-14T04:14:27.058Z,85.04
2023-02-14T04:19:30.003Z,85.90
2023-02-14T04:24:33.660Z,85.20
2023-02-14T04:29:48.799Z,84.54
2023-02-14T04:34:52.771Z,85.17
2023-02-14T04:39:56.341Z,86.48
2023-02-14T04:44:59.825Z,85.66
2023-02-14T04:50:03.643Z,85.01
2023-02-14T04:55:07.712Z,85.10
2023-02-14T05:00:12.525Z,83.91
2023-02-14T05:05:15.720Z,84.17
2023-02-14T05:10:19.220Z,84.23
2023-02-14T05:15:22.877Z,84.42
2023-02-14T05:20:26.349Z,84.56
2023-02-14T05:25:32.948Z,84.79
2023-02-14T05:30:37.226Z,85.42
2023-02-14T05:35:40.301Z,85.74
2023-02-14T05:40:46.316Z,85.83
2023-02-14T05:45:50.448Z,85.51
2023-02-14T05:50:53.939Z,85.67
2023-02-14T05:55:57.977Z,85.58
2023-02-14T06:01:02.130Z,86.41
2023-02-14T06:06:06.818Z,86.58
2023-02-14T06:11:10.159Z,87.58
2023-02-14T06:16:13.375Z,87.17
2023-02-14T06:21:16.865Z,88.02
2023-02-14T06:26:20.410Z,88.46
2023-02-14T06:31:25.516Z,88.57
2023-02-14T06:38:28.037Z,88.32
2023-02-14T06:43:31.931Z,88.74
2023-02-14T06:48:35.346Z,91.50
2023-02-14T06:53:38.943Z,72.21
2023-02-14T06:58:41.994Z,61.11
2023-02-14T07:03:45.976Z,51.97
2023-02-14T07:08:50.648Z,49.96
2023-02-14T07:13:56.041Z,50.05
2023-02-14T07:18:59.253Z,44.35
2023-02-14T07:24:02.728Z,41.89
2023-02-14T07:29:05.918Z,43.08
2023-02-14T07:34:09.862Z,41.73
2023-02-14T07:39:13.098Z,39.10
2023-02-14T07:44:16.294Z,37.18
2023-02-14T07:49:19.825Z,39.61
2023-02-14T07:54:23.143Z,38.84
2023-02-14T07:59:26.918Z,34.84
2023-02-14T08:04:32.955Z,36.34
2023-02-14T08:09:37.174Z,35.96
2023-02-14T08:14:40.513Z,36.55
2023-02-14T08:19:44.234Z,35.39
2023-02-14T08:24:47.575Z,35.92
2023-02-14T08:29:51.164Z,34.82
2023-02-14T08:34:54.316Z,35.53
2023-02-14T08:39:57.362Z,35.06
2023-02-14T08:45:01.164Z,34.38
2023-02-14T08:50:09.980Z,35.51
2023-02-14T08:55:14.633Z,35.67
2023-02-14T09:00:18.066Z,38.18
2023-02-14T09:05:23.688Z,35.90
2023-02-14T09:10:28.642Z,36.06
2023-02-14T09:15:31.966Z,37.23
2023-02-14T09:20:35.437Z,35.16
2023-02-14T09:25:38.678Z,34.28
2023-02-14T09:30:42.209Z,33.64
2023-02-14T09:35:45.764Z,35.08
2023-02-14T09:40:50.672Z,32.59
2023-02-14T09:45:57.495Z,32.90
2023-02-14T09:51:05.680Z,34.17
2023-02-14T09:56:27.303Z,32.50
2023-02-14T10:01:41.783Z,34.08
2023-02-14T10:07:09.879Z,34.68
2023-02-14T10:12:47.952Z,34.33
2023-02-14T10:17:54.558Z,32.59
2023-02-14T10:23:04.949Z,33.90
2023-02-14T10:28:14.649Z,33.24
2023-02-14T10:33:33.702Z,34.75
2023-02-14T10:38:46.715Z,35.27
2023-02-14T10:44:26.358Z,35.08
2023-02-14T10:50:09.592Z,36.08
2023-02-14T10:55:32.096Z,36.53
2023-02-14T11:00:40.168Z,35.50
2023-02-14T11:05:47.819Z,36.29
2023-02-14T11:10:51.248Z,37.70
2023-02-14T11:15:58.797Z,37.98
2023-02-14T11:21:03.509Z,37.72
2023-02-14T11:26:22.823Z,39.77
2023-02-14T11:31:38.662Z,40.45
2023-02-14T11:36:43.280Z,39.99
2023-02-14T11:41:53.020Z,38.86
2023-02-14T11:46:58.337Z,40.73
2023-02-14T11:52:14.142Z,39.45
2023-02-14T11:57:45.413Z,39.35
2023-02-14T12:02:51.424Z,38.28
2023-02-14T12:07:59.321Z,39.57
2023-02-14T12:13:09.998Z,39.31
2023-02-14T12:18:37.903Z,38.94
2023-02-14T12:24:11.988Z,37.31
2023-02-14T12:29:43.811Z,37.13
2023-02-14T12:34:48.736Z,36.53
2023-02-14T12:39:54.818Z,36.95
2023-02-14T12:45:10.308Z,35.78
2023-02-14T12:50:34.699Z,36.68
2023-02-14T12:56:04.598Z,38.08
2023-02-14T13:01:42.008Z,37.60
2023-02-14T13:06:52.166Z,36.68
2023-02-14T13:12:15.073Z,35.75
2023-02-14T13:17:27.835Z,37.07
2023-02-14T13:22:34.225Z,36.06
2023-02-14T13:27:40.327Z,37.61
2023-02-14T13:32:47.859Z,37.97
2023-02-14T13:37:59.231Z,37.82
2023-02-14T13:43:02.909Z,40.01
2023-02-14T13:48:12.338Z,42.07
2023-02-14T13:53:44.219Z,44.63
2023-02-14T13:58:56.303Z,42.03
2023-02-14T14:04:03.230Z,40.27
2023-02-14T14:09:11.632Z,40.14
2023-02-14T14:14:30.618Z,38.79
2023-02-14T14:19:39.337Z,38.79
2023-02-14T14:24:56.740Z,39.33
2023-02-14T14:30:03.374Z,37.11
2023-02-14T14:35:26.757Z,38.22
2023-02-14T14:40:33.094Z,38.47
2023-02-14T14:45:37.065Z,38.53
2023-02-14T14:50:46.373Z,39.93
2023-02-14T14:55:52.410Z,39.68
2023-02-14T15:00:55.704Z,40.45
2023-02-14T15:06:19.303Z,42.11
2023-02-14T15:11:47.713Z,42.02
2023-02-14T15:16:55.031Z,41.72
2023-02-14T15:21:58.609Z,43.57
2023-02-14T15:27:03.960Z,43.62
2023-02-14T15:32:11.331Z,47.52
2023-02-14T15:37:15.440Z,47.10
2023-02-14T15:42:27.970Z,50.08
2023-02-14T15:47:33.767Z,49.62
2023-02-14T15:52:41.069Z,52.49
2023-02-14T15:57:48.775Z,51.58
2023-02-14T16:03:06.645Z,52.81
2023-02-14T16:08:34.374Z,54.28
2023-02-14T16:13:38.834Z,56.73
2023-02-14T16:18:50.912Z,55.46
2023-02-14T16:24:12.055Z,58.46
2023-02-14T16:29:17.113Z,57.60
2023-02-14T16:34:20.895Z,62.31
2023-02-14T16:39:25.340Z,63.07
2023-02-14T16:44:29.133Z,63.16
2023-02-14T16:49:32.480Z,67.83
2023-02-14T16:54:36.014Z,68.92
2023-02-14T16:59:40.025Z,69.21
2023-02-14T17:04:43.208Z,70.77
2023-02-14T17:09:52.120Z,69.79
2023-02-14T17:15:01.041Z,68.94
2023-02-14T17:20:08.739Z,72.22
2023-02-14T17:25:12.549Z,73.09
2023-02-14T17:30:16.337Z,71.05
2023-02-14T17:35:20.440Z,69.28
2023-02-14T17:40:25.724Z,71.67
2023-02-14T17:45:31.971Z,71.36
2023-02-14T17:50:37.975Z,71.68
2023-02-14T17:55:41.102Z,72.71
2023-02-14T18:00:44.730Z,70.05
2023-02-14T18:05:48.018Z,69.47
2023-02-14T18:10:51.544Z,71.92
2023-02-14T18:15:54.699Z,73.17
2023-02-14T18:21:03.059Z,72.95
2023-02-14T18:26:10.309Z,71.75
2023-02-14T18:31:17.224Z,72.00
2023-02-14T18:36:24.580Z,70.25
2023-02-14T18:41:28.103Z,70.35
2023-02-14T18:46:35.462Z,71.79
2023-02-14T18:51:41.757Z,72.36
2023-02-14T18:56:46.208Z,72.29
2023-02-14T19:01:49.250Z,71.00
2023-02-14T19:06:52.995Z,72.61
2023-02-14T19:12:00.435Z,72.95
2023-02-14T19:17:03.923Z,73.26
2023-02-14T19:22:06.891Z,72.93
2023-02-14T19:27:10.132Z,73.96
2023-02-14T19:32:13.281Z,73.32
2023-02-14T19:37:16.401Z,73.43
2023-02-14T19:42:20.735Z,75.10
2023-02-14T19:47:36.521Z,73.92
2023-02-14T19:52:49.021Z,75.81
2023-02-14T19:57:52.475Z,76.93
2023-02-14T20:02:56.030Z,75.36
2023-02-14T20:07:59.332Z,74.66
2023-02-14T20:13:02.920Z,76.54
2023-02-14T20:18:06.032Z,77.40
2023-02-14T20:23:09.272Z,76.56
2023-02-14T20:28:12.835Z,76.68
2023-02-14T20:33:16.373Z,74.99
2023-02-14T20:38:20.095Z,73.89
2023-02-14T20:43:25.945Z,72.19
2023-02-14T20:48:30.381Z,72.95
2023-02-14T20:53:33.427Z,72.96
2023-02-14T20:58:37.513Z,73.16
2023-02-14T21:03:51.198Z,74.06
2023-02-14T21:08:54.870Z,74.83
2023-02-14T21:13:59.990Z,75.32
2023-02-14T21:19:04.501Z,74.88
2023-02-14T21:24:14.852Z,75.60
2023-02-14T21:29:18.295Z,74.67
2023-02-14T21:34:21.526Z,76.07
2023-02-14T21:39:27.732Z,78.42
2023-02-14T21:44:50.146Z,79.54
2023-02-14T21:50:11.539Z,79.28
2023-02-14T21:55:17.762Z,80.84
2023-02-14T22:00:22.830Z,80.88
2023-02-14T22:05:26.668Z,81.79
2023-02-14T22:10:30.335Z,81.90
2023-02-14T22:15:33.384Z,81.94
2023-02-14T22:20:37.123Z,81.56
2023-02-14T22:25:40.170Z,81.87
2023-02-14T22:30:43.393Z,80.08
2023-02-14T22:35:47.402Z,78.80
2023-02-14T22:40:50.535Z,79.16
2023-02-14T22:45:53.576Z,79.72
2023-02-14T22:50:56.743Z,78.80
2023-02-14T22:56:12.611Z,79.06
2023-02-14T23:01:24.151Z,78.62
2023-02-14T23:06:29.553Z,79.41
2023-02-14T23:11:34.479Z,79.97
2023-02-14T23:17:13.141Z,79.38
2023-02-14T23:22:24.422Z,79.89
2023-02-14T23:27:35.468Z,81.41
2023-02-14T23:32:38.686Z,83.08
2023-02-14T23:37:42.100Z,84.11
2023-02-14T23:42:45.646Z,84.64
2023-02-14T23:47:48.715Z,85.52
2023-02-14T23:52:52.141Z,85.25
2023-02-14T23:57:55.424Z,85.13
